createdAt,value
2018-06-27T00:01:55.131Z,98774.69
2018-06-27T00:04:26.306Z,98772.13
2018-06-27T00:06:57.421Z,98774.30
2018-06-27T00:09:28.578Z,98774.34
2018-06-27T00:12:00.271Z,98765.39
2018-06-27T00:14:31.747Z,98760.84
2018-06-27T00:17:03.151Z,98767.77
2018-06-27T00:19:36.094Z,98760.41
2018-06-27T00:22:07.375Z,98765.13
2018-06-27T00:24:39.139Z,98762.25
2018-06-27T00:27:10.561Z,98759.02
2018-06-27T00:29:42.051Z,98764.61
2018-06-27T00:32:13.099Z,98766.03
2018-06-27T00:34:44.877Z,98760.17
2018-06-27T00:37:16.092Z,98751.20
2018-06-27T00:39:47.525Z,98750.15
2018-06-27T00:42:18.711Z,98749.13
2018-06-27T00:44:50.081Z,98749.00
2018-06-27T00:47:21.273Z,98742.20
2018-06-27T00:49:52.906Z,98741.36
2018-06-27T00:52:25.265Z,98743.11
2018-06-27T00:54:56.222Z,98732.62
2018-06-27T00:57:27.280Z,98741.98
2018-06-27T00:59:58.611Z,98737.89
2018-06-27T01:02:30.983Z,98738.45
2018-06-27T01:05:02.166Z,98738.81
2018-06-27T01:07:33.219Z,98736.11
2018-06-27T01:10:04.590Z,98731.34
2018-06-27T01:12:35.990Z,98729.45
2018-06-27T01:15:08.144Z,98733.33
2018-06-27T01:17:39.407Z,98739.30
2018-06-27T01:20:10.650Z,98734.59
2018-06-27T01:22:42.729Z,98730.57
2018-06-27T01:25:14.142Z,98725.56
2018-06-27T01:27:46.260Z,98729.45
2018-06-27T01:30:17.513Z,98727.17
2018-06-27T01:32:48.589Z,98728.97
2018-06-27T01:35:19.923Z,98724.80
2018-06-27T01:37:50.928Z,98724.03
2018-06-27T01:40:22.313Z,98727.72
2018-06-27T01:42:53.362Z,98725.83
2018-06-27T01:45:24.707Z,98731.86
2018-06-27T01:47:56.639Z,98728.79
2018-06-27T01:50:27.717Z,98723.67
2018-06-27T01:52:58.123Z,98719.97
2018-06-27T01:55:29.312Z,98723.28
2018-06-27T01:58:00.941Z,98718.42
2018-06-27T02:00:32.828Z,98721.19
2018-06-27T02:03:03.697Z,98723.90
2018-06-27T02:05:34.651Z,98719.48
2018-06-27T02:08:05.672Z,98721.49
2018-06-27T02:10:36.977Z,98720.94
2018-06-27T02:13:08.480Z,98717.25
2018-06-27T02:15:39.736Z,98714.48
2018-06-27T02:18:11.743Z,98715.94
2018-06-27T02:20:44.758Z,98715.02
2018-06-27T02:23:15.865Z,98711.13
2018-06-27T02:25:47.792Z,98718.23
2018-06-27T02:28:19.633Z,98711.52
2018-06-27T02:30:50.649Z,98711.22
2018-06-27T02:33:26.866Z,98716.38
2018-06-27T02:35:58.720Z,98720.86
2018-06-27T02:38:30.279Z,98724.25
2018-06-27T02:41:02.608Z,98721.91
2018-06-27T02:43:33.701Z,98719.70
2018-06-27T02:46:05.417Z,98729.64
2018-06-27T02:48:37.279Z,98727.34
2018-06-27T02:51:08.471Z,98728.19
2018-06-27T02:53:40.829Z,98728.09
2018-06-27T02:56:12.265Z,98734.19
2018-06-27T02:58:44.459Z,98735.97
2018-06-27T03:01:16.603Z,98732.51
2018-06-27T03:03:48.048Z,98733.25
2018-06-27T03:06:19.245Z,98730.16
2018-06-27T03:08:50.150Z,98723.50
2018-06-27T03:11:21.385Z,98724.91
2018-06-27T03:13:52.635Z,98727.67
2018-06-27T03:16:23.862Z,98729.96
2018-06-27T03:18:56.268Z,98728.21
2018-06-27T03:21:27.497Z,98727.17
2018-06-27T03:23:58.565Z,98721.34
2018-06-27T03:26:29.368Z,98723.60
2018-06-27T03:29:00.459Z,98725.75
2018-06-27T03:31:31.606Z,98731.70
2018-06-27T03:34:02.698Z,98725.28
2018-06-27T03:36:33.777Z,98729.08
2018-06-27T03:39:07.652Z,98729.69
2018-06-27T03:41:38.958Z,98730.19
2018-06-27T03:44:10.901Z,98730.45
2018-06-27T03:46:41.859Z,98735.92
2018-06-27T03:49:13.145Z,98730.94
2018-06-27T03:51:45.020Z,98734.01
2018-06-27T03:54:15.309Z,98736.01
2018-06-27T03:56:47.213Z,98741.36
2018-06-27T03:59:18.868Z,98739.81
2018-06-27T04:01:50.882Z,98739.91
2018-06-27T04:04:21.281Z,98736.69
2018-06-27T04:06:52.354Z,98740.36
2018-06-27T04:09:24.399Z,98737.80
2018-06-27T04:11:55.539Z,98744.55
2018-06-27T04:14:27.006Z,98748.63
2018-06-27T04:16:58.419Z,98747.36
2018-06-27T04:19:29.569Z,98752.05
2018-06-27T04:22:01.565Z,98748.39
2018-06-27T04:24:32.605Z,98749.36
2018-06-27T04:27:03.980Z,98749.52
2018-06-27T04:29:34.946Z,98752.80
2018-06-27T04:32:06.142Z,98746.88
2018-06-27T04:34:37.134Z,98751.57
2018-06-27T04:37:08.335Z,98745.48
2018-06-27T04:39:40.517Z,98751.59
2018-06-27T04:42:11.634Z,98755.35
2018-06-27T04:44:42.783Z,98753.89
2018-06-27T04:47:15.003Z,98753.34
2018-06-27T04:49:47.133Z,98754.33
2018-06-27T04:52:18.593Z,98752.52
2018-06-27T04:54:49.687Z,98753.64
2018-06-27T04:57:21.278Z,98764.05
2018-06-27T04:59:51.690Z,98762.30
2018-06-27T05:02:23.123Z,98756.11
2018-06-27T05:04:54.325Z,98760.53
2018-06-27T05:07:26.016Z,98753.75
2018-06-27T05:09:57.671Z,98767.20
2018-06-27T05:12:28.945Z,98762.48
2018-06-27T05:15:00.101Z,98761.71
2018-06-27T05:17:31.521Z,98764.05
2018-06-27T05:20:02.852Z,98761.80
2018-06-27T05:22:35.040Z,98757.08
2018-06-27T05:25:06.512Z,98752.90
2018-06-27T05:27:38.262Z,98764.59
2018-06-27T05:30:09.437Z,98765.39
2018-06-27T05:32:41.317Z,98757.41
2018-06-27T05:35:12.991Z,98755.72
2018-06-27T05:37:44.501Z,98759.44
2018-06-27T05:40:15.778Z,98760.17
2018-06-27T05:42:47.594Z,98756.75
2018-06-27T05:45:19.635Z,98760.45
2018-06-27T05:47:50.914Z,98755.70
2018-06-27T05:50:22.648Z,98758.56
2018-06-27T05:52:54.641Z,98755.33
2018-06-27T05:55:26.848Z,98761.19
2018-06-27T05:57:58.583Z,98769.82
2018-06-27T06:00:30.295Z,98774.66
2018-06-27T06:03:02.263Z,98774.16
2018-06-27T06:05:34.382Z,98774.51
2018-06-27T06:08:07.708Z,98779.00
2018-06-27T06:10:39.397Z,98775.53
2018-06-27T06:13:10.999Z,98774.00
2018-06-27T06:15:42.631Z,98768.51
2018-06-27T06:18:13.756Z,98766.80
2018-06-27T06:20:45.201Z,98768.28
2018-06-27T06:23:17.199Z,98764.17
2018-06-27T06:25:49.424Z,98767.41
2018-06-27T06:28:20.910Z,98758.11
2018-06-27T06:30:52.455Z,98759.66
2018-06-27T06:33:23.409Z,98759.31
2018-06-27T06:35:54.554Z,98768.08
2018-06-27T06:38:25.708Z,98764.45
2018-06-27T06:40:57.078Z,98762.77
2018-06-27T06:43:28.274Z,98755.09
2018-06-27T06:46:00.369Z,98747.01
2018-06-27T06:48:31.908Z,98746.09
2018-06-27T06:51:03.879Z,98751.20
2018-06-27T06:53:35.217Z,98744.30
2018-06-27T06:56:07.444Z,98743.18
2018-06-27T06:58:38.904Z,98740.88
2018-06-27T07:01:10.143Z,98751.10
2018-06-27T07:03:43.755Z,98745.19
2018-06-27T07:06:19.038Z,98750.03
2018-06-27T07:08:50.090Z,98749.58
2018-06-27T07:11:22.912Z,98749.28
2018-06-27T07:13:54.278Z,98750.34
2018-06-27T07:16:27.449Z,98745.44
2018-06-27T07:18:58.620Z,98738.64
2018-06-27T07:21:31.866Z,98739.73
2018-06-27T07:24:04.204Z,98734.13
2018-06-27T07:26:35.234Z,98729.13
2018-06-27T07:29:06.449Z,98732.59
2018-06-27T07:31:38.784Z,98732.39
2018-06-27T07:34:10.900Z,98726.30
2018-06-27T07:36:42.172Z,98732.18
2018-06-27T07:39:13.677Z,98725.28
2018-06-27T07:41:45.287Z,98723.17
2018-06-27T07:44:16.893Z,98719.61
2018-06-27T07:46:48.147Z,98725.11
2018-06-27T07:49:20.463Z,98716.36
2018-06-27T07:51:53.499Z,98717.70
2018-06-27T07:54:24.689Z,98707.41
2018-06-27T07:56:56.337Z,98709.12
2018-06-27T07:59:28.049Z,98707.91
2018-06-27T08:02:00.484Z,98700.33
2018-06-27T08:04:32.048Z,98698.39
2018-06-27T08:07:03.715Z,98698.03
2018-06-27T08:09:35.240Z,98700.25
2018-06-27T08:12:06.605Z,98691.79
2018-06-27T08:14:38.010Z,98694.08
2018-06-27T08:17:09.712Z,98693.13
2018-06-27T08:19:41.862Z,98690.17
2018-06-27T08:22:14.265Z,98682.02
2018-06-27T08:24:45.991Z,98684.71
2018-06-27T08:27:19.305Z,98680.78
2018-06-27T08:29:51.616Z,98690.63
2018-06-27T08:32:25.768Z,98681.52
2018-06-27T08:34:57.155Z,98678.36
2018-06-27T08:37:28.935Z,98688.16
2018-06-27T08:40:01.144Z,98690.64
2018-06-27T08:42:32.603Z,98687.20
2018-06-27T08:45:05.623Z,98677.36
2018-06-27T08:47:36.904Z,98684.52
2018-06-27T08:50:08.608Z,98678.06
2018-06-27T08:52:40.626Z,98675.29
2018-06-27T08:55:13.057Z,98676.23
2018-06-27T08:57:43.936Z,98675.58
2018-06-27T09:00:15.592Z,98670.85
2018-06-27T09:02:48.314Z,98666.87
2018-06-27T09:05:19.843Z,98659.13
2018-06-27T09:07:51.709Z,98654.84
2018-06-27T09:10:23.609Z,98665.23
2018-06-27T09:12:55.121Z,98654.38
2018-06-27T09:15:26.385Z,98647.77
2018-06-27T09:17:58.411Z,98653.45
2018-06-27T09:20:30.015Z,98649.62
2018-06-27T09:23:02.423Z,98637.16
2018-06-27T09:25:34.625Z,98639.97
2018-06-27T09:28:05.715Z,98641.22
2018-06-27T09:30:38.979Z,98636.59
2018-06-27T09:33:10.587Z,98632.20
2018-06-27T09:35:42.088Z,98626.27
2018-06-27T09:38:12.705Z,98617.17
2018-06-27T09:40:44.398Z,98627.59
2018-06-27T09:43:16.712Z,98628.47
2018-06-27T09:45:47.844Z,98630.98
2018-06-27T09:48:19.431Z,98623.55
2018-06-27T09:50:51.786Z,98627.46
2018-06-27T09:53:23.234Z,98630.05
2018-06-27T09:55:54.775Z,98629.91
2018-06-27T09:58:27.228Z,98620.89
2018-06-27T10:00:58.618Z,98611.48
2018-06-27T10:03:30.054Z,98619.09
2018-06-27T10:06:01.647Z,98628.59
2018-06-27T10:08:33.119Z,98617.06
2018-06-27T10:11:03.990Z,98607.44
2018-06-27T10:13:36.466Z,98616.81
2018-06-27T10:16:09.051Z,98609.03
2018-06-27T10:18:41.208Z,98611.26
2018-06-27T10:21:13.088Z,98614.18
2018-06-27T10:23:46.155Z,98608.80
2018-06-27T10:26:17.178Z,98612.39
2018-06-27T10:28:48.445Z,98608.30
2018-06-27T10:31:19.650Z,98601.91
2018-06-27T10:33:51.588Z,98604.27
2018-06-27T10:36:23.837Z,98592.25
2018-06-27T10:38:55.872Z,98595.62
2018-06-27T10:41:26.963Z,98595.08
2018-06-27T10:43:58.278Z,98593.95
2018-06-27T10:46:29.748Z,98590.60
2018-06-27T10:49:01.228Z,98592.39
2018-06-27T10:51:32.503Z,98601.93
2018-06-27T10:54:04.273Z,98602.11
2018-06-27T10:56:35.522Z,98598.64
2018-06-27T10:59:07.806Z,98595.38
2018-06-27T11:01:40.515Z,98602.99
2018-06-27T11:04:12.771Z,98598.36
2018-06-27T11:06:44.167Z,98603.83
2018-06-27T11:09:15.670Z,98592.41
2018-06-27T11:11:48.386Z,98589.80
2018-06-27T11:14:20.847Z,98590.39
2018-06-27T11:16:52.747Z,98593.77
2018-06-27T11:19:24.802Z,98595.09
2018-06-27T11:21:57.282Z,98588.33
2018-06-27T11:24:29.678Z,98595.66
2018-06-27T11:27:00.947Z,98589.95
2018-06-27T11:29:35.125Z,98585.88
2018-06-27T11:32:07.519Z,98584.78
2018-06-27T11:34:40.359Z,98580.27
2018-06-27T11:37:13.783Z,98583.27
2018-06-27T11:39:47.458Z,98582.98
2018-06-27T11:42:20.404Z,98583.13
2018-06-27T11:44:52.800Z,98564.53
2018-06-27T11:47:25.101Z,98571.95
2018-06-27T11:49:56.360Z,98573.77
2018-06-27T11:52:29.615Z,98578.33
2018-06-27T11:55:06.020Z,98570.17
2018-06-27T11:57:38.301Z,98577.85
2018-06-27T12:00:12.356Z,98566.11
2018-06-27T12:02:43.478Z,98575.48
2018-06-27T12:05:15.038Z,98566.33
2018-06-27T12:07:46.471Z,98567.72
2018-06-27T12:10:18.107Z,98570.64
2018-06-27T12:12:50.966Z,98559.61
2018-06-27T12:15:22.840Z,98567.03
2018-06-27T12:17:54.707Z,98564.66
2018-06-27T12:20:25.840Z,98561.61
2018-06-27T12:22:58.059Z,98566.84
2018-06-27T12:25:30.116Z,98564.50
2018-06-27T12:28:01.748Z,98563.81
2018-06-27T12:30:34.411Z,98561.96
2018-06-27T12:33:05.979Z,98555.95
2018-06-27T12:35:38.022Z,98563.08
2018-06-27T12:38:09.696Z,98557.58
2018-06-27T12:40:41.573Z,98566.09
2018-06-27T12:43:13.094Z,98554.47
2018-06-27T12:45:44.517Z,98553.05
2018-06-27T12:48:16.627Z,98562.05
2018-06-27T12:50:47.442Z,98550.73
2018-06-27T12:53:18.778Z,98552.83
2018-06-27T12:55:50.607Z,98549.51
2018-06-27T12:58:22.153Z,98551.92
2018-06-27T13:00:55.763Z,98540.20
2018-06-27T13:03:27.467Z,98544.58
2018-06-27T13:05:59.285Z,98550.93
2018-06-27T13:08:32.244Z,98541.45
2018-06-27T13:11:04.417Z,98540.97
2018-06-27T13:13:35.880Z,98541.03
2018-06-27T13:16:09.145Z,98543.13
2018-06-27T13:18:40.538Z,98535.18
2018-06-27T13:21:11.779Z,98543.16
2018-06-27T13:23:42.765Z,98540.80
2018-06-27T13:26:14.366Z,98541.99
2018-06-27T13:28:46.804Z,98531.04
2018-06-27T13:31:18.484Z,98530.33
2018-06-27T13:33:49.853Z,98530.66
2018-06-27T13:36:21.080Z,98533.02
2018-06-27T13:38:52.348Z,98527.89
2018-06-27T13:41:23.505Z,98518.00
2018-06-27T13:43:54.633Z,98524.42
2018-06-27T13:46:25.750Z,98515.70
2018-06-27T13:48:56.869Z,98513.89
2018-06-27T13:51:29.203Z,98521.86
2018-06-27T13:54:00.469Z,98518.92
2018-06-27T13:56:31.155Z,98514.98
2018-06-27T13:59:03.252Z,98515.84
2018-06-27T14:01:34.305Z,98515.11
2018-06-27T14:04:05.912Z,98513.84
2018-06-27T14:06:38.402Z,98517.55
2018-06-27T14:09:12.064Z,98511.71
2018-06-27T14:11:43.566Z,98519.34
2018-06-27T14:14:15.789Z,98514.61
2018-06-27T14:16:48.220Z,98501.13
2018-06-27T14:19:19.768Z,98503.26
2018-06-27T14:21:52.496Z,98509.95
2018-06-27T14:24:23.633Z,98507.17
2018-06-27T14:26:55.001Z,98499.87
2018-06-27T14:29:26.466Z,98499.66
2018-06-27T14:31:57.956Z,98500.90
2018-06-27T14:34:29.363Z,98499.14
2018-06-27T14:37:02.208Z,98498.13
2018-06-27T14:39:34.474Z,98503.17
2018-06-27T14:42:05.915Z,98491.72
2018-06-27T14:44:37.209Z,98482.00
2018-06-27T14:47:08.703Z,98490.53
2018-06-27T14:49:39.898Z,98487.41
2018-06-27T14:52:11.425Z,98500.60
2018-06-27T14:54:46.353Z,98489.41
2018-06-27T14:57:17.654Z,98489.89
2018-06-27T14:59:49.365Z,98493.78
2018-06-27T15:02:20.717Z,98480.23
2018-06-27T15:04:52.062Z,98486.41
2018-06-27T15:07:24.287Z,98486.08
2018-06-27T15:09:56.198Z,98489.50
2018-06-27T15:12:28.801Z,98489.00
2018-06-27T15:15:01.529Z,98483.13
2018-06-27T15:17:33.988Z,98477.41
2018-06-27T15:20:06.675Z,98488.65
2018-06-27T15:22:39.790Z,98482.63
2018-06-27T15:25:13.512Z,98478.70
2018-06-27T15:27:46.266Z,98469.45
2018-06-27T15:30:18.578Z,98472.86
2018-06-27T15:32:51.406Z,98463.13
2018-06-27T15:35:23.010Z,98461.27
2018-06-27T15:37:54.858Z,98464.11
2018-06-27T15:40:26.473Z,98462.06
2018-06-27T15:42:58.626Z,98455.41
2018-06-27T15:45:31.517Z,98443.09
2018-06-27T15:48:05.019Z,98438.36
2018-06-27T15:50:36.863Z,98446.77
2018-06-27T15:53:09.459Z,98439.91
2018-06-27T15:55:42.685Z,98440.79
2018-06-27T15:58:15.030Z,98444.34
2018-06-27T16:00:48.391Z,98446.58
2018-06-27T16:03:21.785Z,98439.59
2018-06-27T16:05:54.582Z,98432.13
2018-06-27T16:08:26.621Z,98438.09
2018-06-27T16:10:59.672Z,98430.35
2018-06-27T16:13:35.180Z,98442.67
2018-06-27T16:16:07.761Z,98441.50
2018-06-27T16:18:39.937Z,98447.91
2018-06-27T16:21:11.680Z,98439.16
2018-06-27T16:23:44.576Z,98442.12
2018-06-27T16:26:16.600Z,98447.13
2018-06-27T16:28:48.665Z,98441.70
2018-06-27T16:31:21.716Z,98439.59
2018-06-27T16:33:55.233Z,98445.83
2018-06-27T16:36:26.575Z,98442.19
2018-06-27T16:39:00.631Z,98448.15
2018-06-27T16:41:32.327Z,98453.53
2018-06-27T16:44:04.226Z,98448.78
2018-06-27T16:46:37.121Z,98452.22
2018-06-27T16:49:10.931Z,98458.46
2018-06-27T16:51:43.174Z,98454.67
2018-06-27T16:54:14.360Z,98455.94
2018-06-27T16:56:45.837Z,98460.66
2018-06-27T16:59:17.001Z,98455.62
2018-06-27T17:01:48.114Z,98449.37
2018-06-27T17:04:18.854Z,98455.34
2018-06-27T17:06:50.201Z,98458.02
2018-06-27T17:09:21.567Z,98458.16
2018-06-27T17:11:53.116Z,98457.34
2018-06-27T17:14:25.653Z,98458.45
2018-06-27T17:16:57.962Z,98455.48
2018-06-27T17:19:30.033Z,98455.86
2018-06-27T17:22:00.734Z,98461.50
2018-06-27T17:24:33.038Z,98462.25
2018-06-27T17:27:04.572Z,98467.30
2018-06-27T17:29:36.014Z,98466.09
2018-06-27T17:32:06.487Z,98473.58
2018-06-27T17:34:37.477Z,98476.91
2018-06-27T17:37:09.831Z,98472.56
2018-06-27T17:39:41.554Z,98480.27
2018-06-27T17:42:14.494Z,98480.37
2018-06-27T17:44:46.111Z,98489.27
2018-06-27T17:47:17.755Z,98486.63
2018-06-27T17:49:50.449Z,98488.61
2018-06-27T17:52:21.570Z,98489.25
2018-06-27T17:54:54.785Z,98485.48
2018-06-27T17:57:27.978Z,98493.55
2018-06-27T18:00:00.599Z,98493.67
2018-06-27T18:02:33.678Z,98494.05
2018-06-27T18:05:06.401Z,98491.52
2018-06-27T18:07:39.295Z,98497.91
2018-06-27T18:10:12.796Z,98496.31
2018-06-27T18:12:47.383Z,98502.81
2018-06-27T18:15:19.501Z,98503.77
2018-06-27T18:17:52.713Z,98509.96
2018-06-27T18:20:25.477Z,98518.38
2018-06-27T18:22:59.086Z,98516.73
2018-06-27T18:25:32.270Z,98518.48
2018-06-27T18:28:05.029Z,98516.80
2018-06-27T18:30:38.111Z,98521.77
2018-06-27T18:33:10.993Z,98514.66
2018-06-27T18:35:43.764Z,98523.19
2018-06-27T18:38:17.944Z,98520.05
2018-06-27T18:40:51.180Z,98520.20
2018-06-27T18:43:23.928Z,98520.17
2018-06-27T18:45:56.897Z,98528.27
2018-06-27T18:48:29.809Z,98525.14
2018-06-27T18:51:03.006Z,98520.34
2018-06-27T18:53:35.045Z,98522.22
2018-06-27T18:56:08.132Z,98535.78
2018-06-27T18:58:40.993Z,98535.05
2018-06-27T19:01:14.603Z,98534.67
2018-06-27T19:03:47.867Z,98534.48
2018-06-27T19:06:21.318Z,98542.98
2018-06-27T19:08:54.261Z,98541.89
2018-06-27T19:11:27.843Z,98537.80
2018-06-27T19:14:00.987Z,98530.13
2018-06-27T19:16:34.097Z,98539.33
2018-06-27T19:19:08.539Z,98534.77
2018-06-27T19:21:41.772Z,98527.18
2018-06-27T19:24:15.699Z,98529.47
2018-06-27T19:26:49.324Z,98536.66
2018-06-27T19:29:22.231Z,98549.19
2018-06-27T19:31:55.395Z,98543.88
2018-06-27T19:34:28.744Z,98550.05
2018-06-27T19:37:01.995Z,98552.41
2018-06-27T19:39:37.456Z,98570.59
2018-06-27T19:42:13.181Z,98571.70
2018-06-27T19:44:47.599Z,98567.91
2018-06-27T19:47:20.434Z,98570.33
2018-06-27T19:49:54.741Z,98573.03
2018-06-27T19:52:27.711Z,98575.37
2018-06-27T19:55:00.806Z,98589.30
2018-06-27T19:57:35.553Z,98593.45
2018-06-27T20:00:08.610Z,98594.30
2018-06-27T20:02:42.617Z,98608.85
2018-06-27T20:05:15.384Z,98610.70
2018-06-27T20:07:48.371Z,98613.18
2018-06-27T20:10:21.999Z,98614.02
2018-06-27T20:12:55.466Z,98608.21
2018-06-27T20:15:37.985Z,98616.80
2018-06-27T20:18:11.604Z,98616.80
2018-06-27T20:20:46.333Z,98615.82
2018-06-27T20:23:22.248Z,98624.09
2018-06-27T20:25:55.671Z,98612.02
2018-06-27T20:28:28.397Z,98619.00
2018-06-27T20:31:02.149Z,98616.83
2018-06-27T20:33:36.179Z,98610.70
2018-06-27T20:36:09.107Z,98610.88
2018-06-27T20:38:45.257Z,98612.03
2018-06-27T20:41:18.113Z,98609.83
2018-06-27T20:43:52.238Z,98609.33
2018-06-27T20:46:25.001Z,98605.84
2018-06-27T20:48:59.268Z,98601.53
2018-06-27T20:51:32.970Z,98600.83
2018-06-27T20:54:06.190Z,98607.40
2018-06-27T20:56:39.843Z,98609.59
2018-06-27T20:59:12.415Z,98603.57
2018-06-27T21:01:45.163Z,98603.20
2018-06-27T21:04:17.209Z,98604.08
2018-06-27T21:06:49.635Z,98600.02
2018-06-27T21:09:21.678Z,98600.06
2018-06-27T21:11:55.156Z,98599.44
2018-06-27T21:14:27.628Z,98598.73
2018-06-27T21:16:59.226Z,98595.95
2018-06-27T21:19:31.231Z,98601.14
2018-06-27T21:22:02.787Z,98597.12
2018-06-27T21:24:34.601Z,98599.55
2018-06-27T21:27:06.126Z,98601.27
2018-06-27T21:29:38.233Z,98598.23
2018-06-27T21:32:09.591Z,98610.76
2018-06-27T21:34:41.047Z,98615.66
2018-06-27T21:37:11.796Z,98622.70
2018-06-27T21:39:43.303Z,98623.19
2018-06-27T21:42:16.217Z,98634.02
2018-06-27T21:44:47.455Z,98634.16
2018-06-27T21:47:18.924Z,98631.47
2018-06-27T21:49:50.086Z,98634.75
2018-06-27T21:52:21.401Z,98644.77
2018-06-27T21:54:52.759Z,98650.70
2018-06-27T21:57:24.929Z,98654.27
2018-06-27T21:59:58.686Z,98643.36
2018-06-27T22:02:29.879Z,98642.69
2018-06-27T22:05:01.736Z,98640.05
2018-06-27T22:07:33.893Z,98644.91
2018-06-27T22:10:05.302Z,98646.20
2018-06-27T22:12:36.541Z,98646.97
2018-06-27T22:15:07.975Z,98648.41
2018-06-27T22:17:41.515Z,98650.94
2018-06-27T22:20:14.011Z,98658.92
2018-06-27T22:22:45.920Z,98667.72
2018-06-27T22:25:17.937Z,98657.23
2018-06-27T22:27:51.795Z,98661.94
2018-06-27T22:30:23.303Z,98656.61
2018-06-27T22:32:55.404Z,98651.39
2018-06-27T22:35:26.936Z,98642.58
2018-06-27T22:37:57.997Z,98649.89
2018-06-27T22:40:29.597Z,98653.33
2018-06-27T22:43:01.200Z,98656.15
2018-06-27T22:45:33.056Z,98657.93
2018-06-27T22:48:04.216Z,98659.13
2018-06-27T22:50:35.529Z,98654.25
2018-06-27T22:53:06.854Z,98650.98
2018-06-27T22:55:38.885Z,98648.39
2018-06-27T22:58:10.278Z,98646.84
2018-06-27T23:00:41.821Z,98637.78
2018-06-27T23:03:13.875Z,98632.42
2018-06-27T23:05:45.275Z,98639.10
2018-06-27T23:08:16.624Z,98633.83
2018-06-27T23:10:47.952Z,98633.06
2018-06-27T23:13:19.100Z,98632.77
2018-06-27T23:15:51.097Z,98626.53
2018-06-27T23:18:22.292Z,98623.48
2018-06-27T23:20:53.911Z,98623.11
2018-06-27T23:23:24.292Z,98618.58
2018-06-27T23:25:55.675Z,98616.87
2018-06-27T23:28:27.305Z,98610.69
2018-06-27T23:30:58.588Z,98607.53
2018-06-27T23:33:30.558Z,98604.81
2018-06-27T23:36:01.629Z,98605.61
2018-06-27T23:38:32.987Z,98603.69
2018-06-27T23:41:03.553Z,98605.23
2018-06-27T23:43:34.514Z,98606.95
2018-06-27T23:46:05.903Z,98610.39
2018-06-27T23:48:37.011Z,98603.27
2018-06-27T23:51:08.190Z,98602.28
2018-06-27T23:53:39.246Z,98602.75
2018-06-27T23:56:10.616Z,98598.13
2018-06-27T23:58:42.581Z,98598.95
